Time;durP1;ratioP1;P1;durP2;ratioP2;P2;SDS_P1;SDS_P2;PMS_P1;PMS_P2;Temp;Humidity;BMP_temperature;BMP_pressure;BME280_temperature;BME280_humidity;BME280_pressure;Samples;Min_cycle;Max_cycle;Signal;HPM_P1;HPM_P2
2022/06/10 00:02:20;;;;;;;7.47;2.28;;;;;;;16.95;100.00;102020.16;5045295;28;20298;-69
2022/06/10 00:04:45;;;;;;;8.73;2.50;;;;;;;17.05;100.00;102025.59;5063534;28;20128;-69
2022/06/10 00:07:10;;;;;;;11.32;2.83;;;;;;;16.99;100.00;102025.94;5062237;28;20026;-70
2022/06/10 00:09:36;;;;;;;10.63;2.45;;;;;;;17.03;100.00;102018.69;5058452;28;20432;-69
2022/06/10 00:12:01;;;;;;;10.75;2.75;;;;;;;17.07;100.00;102019.75;5061514;28;20060;-69
2022/06/10 00:14:27;;;;;;;9.75;2.45;;;;;;;17.09;100.00;102014.72;5062853;28;20569;-70
2022/06/10 00:16:52;;;;;;;9.85;2.25;;;;;;;17.11;100.00;102014.44;5064279;28;20413;-69
2022/06/10 00:19:18;;;;;;;9.10;2.63;;;;;;;17.22;100.00;102019.53;5063135;28;20511;-68
2022/06/10 00:21:43;;;;;;;12.70;2.90;;;;;;;17.18;100.00;102012.09;5063491;28;20037;-69
2022/06/10 00:24:09;;;;;;;12.18;2.95;;;;;;;17.21;100.00;102014.28;5055601;28;20028;-69
2022/06/10 00:26:34;;;;;;;9.13;2.60;;;;;;;17.24;100.00;102010.91;5045462;28;20616;-69
2022/06/10 00:29:02;;;;;;;9.57;2.80;;;;;;;17.24;100.00;102019.22;5040716;28;20064;-69
2022/06/10 00:31:27;;;;;;;11.00;2.50;;;;;;;17.25;100.00;102016.16;5044507;28;20120;-69
2022/06/10 00:33:53;;;;;;;11.63;2.72;;;;;;;17.40;100.00;102008.75;5027427;28;20132;-69
2022/06/10 00:36:19;;;;;;;9.00;2.50;;;;;;;17.45;100.00;102008.66;5044399;28;20449;-70
2022/06/10 00:38:46;;;;;;;9.63;2.55;;;;;;;17.38;100.00;102013.75;5039451;28;20322;-68
2022/06/10 00:41:12;;;;;;;10.02;2.83;;;;;;;17.46;100.00;102015.84;5043666;28;20033;-68
2022/06/10 00:43:40;;;;;;;9.05;2.35;;;;;;;17.44;100.00;102016.13;5023566;28;20076;-69
2022/06/10 00:46:23;;;;;;;13.70;2.75;;;;;;;17.43;100.00;102016.44;5009504;28;20063;-68
2022/06/10 00:49:10;;;;;;;;;;;;;;;17.40;100.00;102012.34;5045501;28;20067;-69
2022/06/10 00:51:38;;;;;;;9.05;2.85;;;;;;;17.56;100.00;102015.72;5045897;28;20383;-69
2022/06/10 00:54:07;;;;;;;10.20;2.40;;;;;;;17.63;100.00;102020.88;5039474;28;20032;-69
2022/06/10 00:56:36;;;;;;;11.65;2.75;;;;;;;17.64;100.00;102020.56;5044086;28;20033;-70
2022/06/10 00:59:10;;;;;;;10.52;2.75;;;;;;;17.43;100.00;102022.81;5041197;28;20060;-70
2022/06/10 01:01:37;;;;;;;10.35;2.05;;;;;;;17.67;100.00;102021.91;5042922;28;20503;-70
2022/06/10 01:04:04;;;;;;;10.45;2.58;;;;;;;17.71;100.00;102024.88;5043877;28;20093;-69
2022/06/10 01:06:30;;;;;;;10.20;2.40;;;;;;;17.70;100.00;102026.03;5010700;28;20037;-70
2022/06/10 01:08:59;;;;;;;7.88;2.55;;;;;;;17.78;100.00;102022.56;5040537;28;20036;-69
2022/06/10 01:11:36;;;;;;;8.13;2.58;;;;;;;17.74;100.00;102021.50;5043707;28;20575;-69
2022/06/10 01:14:05;;;;;;;8.95;2.70;;;;;;;17.79;100.00;102021.44;5038708;28;20020;-69
2022/06/10 01:17:08;;;;;;;15.25;3.00;;;;;;;17.77;100.00;102018.97;5041870;28;20090;-68
2022/06/10 01:19:42;;;;;;;10.02;2.50;;;;;;;17.74;100.00;102021.50;5041778;28;20052;-69
2022/06/10 01:22:38;;;;;;;10.68;2.40;;;;;;;17.73;100.00;102022.66;5041807;28;20033;-70
2022/06/10 01:25:21;;;;;;;11.95;2.72;;;;;;;17.59;100.00;102025.34;5037543;28;20021;-69
2022/06/10 01:27:56;;;;;;;12.70;3.25;;;;;;;17.60;100.00;102027.84;5041905;28;20041;-69
2022/06/10 01:30:28;;;;;;;9.65;2.65;;;;;;;17.85;100.00;102023.00;5041819;28;20527;-69
2022/06/10 01:33:17;;;;;;;12.85;3.10;;;;;;;17.96;100.00;102026.47;5041843;28;20060;-69
2022/06/10 01:35:53;;;;;;;9.50;2.53;;;;;;;17.90;100.00;102030.44;5042260;28;20090;-70
2022/06/10 01:38:44;;;;;;;9.18;2.60;;;;;;;18.00;100.00;102030.25;5041587;28;20033;-69
2022/06/10 01:41:19;;;;;;;10.52;2.40;;;;;;;17.77;100.00;102018.13;5039821;28;20035;-69
2022/06/10 01:43:52;;;;;;;10.90;2.55;;;;;;;17.67;100.00;102027.44;5040249;28;20051;-70
2022/06/10 01:46:20;;;;;;;12.85;2.70;;;;;;;17.36;100.00;102027.09;5041937;28;20021;-70
2022/06/10 01:49:10;;;;;;;11.93;2.97;;;;;;;17.61;100.00;102029.50;5043535;28;20122;-69
2022/06/10 01:51:58;;;;;;;10.88;2.70;;;;;;;17.46;100.00;102032.47;5041518;28;20078;-70
2022/06/10 01:54:44;;;;;;;8.02;2.30;;;;;;;17.74;100.00;102024.28;5038011;28;20089;-70
2022/06/10 01:57:25;;;;;;;8.35;2.55;;;;;;;17.77;100.00;102037.56;5038464;28;20469;-70
2022/06/10 02:00:14;;;;;;;10.70;2.83;;;;;;;17.49;100.00;102029.09;5042969;28;20098;-69
2022/06/10 02:02:47;;;;;;;12.60;2.95;;;;;;;17.28;100.00;102031.34;5043431;28;20475;-69
2022/06/10 02:05:19;;;;;;;8.60;3.05;;;;;;;17.30;100.00;102034.66;5040435;28;20028;-70
2022/06/10 02:07:58;;;;;;;9.73;3.20;;;;;;;17.16;100.00;102031.78;5041636;28;20094;-69
2022/06/10 02:10:39;;;;;;;10.65;2.78;;;;;;;17.34;100.00;102030.16;5036143;28;20036;-69
2022/06/10 02:13:11;;;;;;;10.15;2.80;;;;;;;17.23;100.00;102035.03;5042150;28;20482;-70
2022/06/10 02:15:49;;;;;;;10.88;2.88;;;;;;;17.39;100.00;102030.09;5046365;28;20024;-70
2022/06/10 02:18:21;;;;;;;9.45;3.00;;;;;;;17.42;100.00;102021.16;5043233;28;20115;-71
2022/06/10 02:21:00;;;;;;;10.80;2.90;;;;;;;17.41;100.00;102027.00;5044161;28;20036;-69
2022/06/10 02:23:31;;;;;;;11.13;2.97;;;;;;;17.52;100.00;102022.97;5042821;28;20047;-69
2022/06/10 02:25:59;;;;;;;8.63;2.42;;;;;;;17.58;100.00;102032.88;5040946;28;20033;-70
2022/06/10 02:28:39;;;;;;;11.13;2.78;;;;;;;17.65;100.00;102029.69;5043319;28;20048;-70
2022/06/10 02:31:16;;;;;;;9.27;2.95;;;;;;;17.68;100.00;102025.53;5047972;28;20028;-69
2022/06/10 02:33:42;;;;;;;11.55;3.33;;;;;;;17.64;100.00;102028.03;5045015;28;20024;-69
2022/06/10 02:36:19;;;;;;;12.60;3.53;;;;;;;17.69;100.00;102024.38;5066017;28;20024;-70
2022/06/10 02:39:08;;;;;;;7.82;2.75;;;;;;;17.70;100.00;102021.31;5040623;28;20446;-70
2022/06/10 02:41:37;;;;;;;10.38;3.10;;;;;;;17.71;100.00;102030.44;5043317;28;20559;-69
2022/06/10 02:44:07;;;;;;;12.15;2.90;;;;;;;17.63;100.00;102020.88;5042256;28;20090;-69
2022/06/10 02:46:59;;;;;;;8.65;2.72;;;;;;;17.62;100.00;102027.53;5043443;28;20025;-70
2022/06/10 02:49:25;;;;;;;11.25;2.90;;;;;;;17.63;100.00;102027.22;5038521;28;20464;-70
2022/06/10 02:51:50;;;;;;;10.43;3.03;;;;;;;17.46;100.00;102035.25;5045150;28;20039;-69
2022/06/10 02:54:23;;;;;;;10.65;2.97;;;;;;;17.30;100.00;102039.38;5047363;28;20036;-69
2022/06/10 02:56:49;;;;;;;;;;;;;;;17.06;100.00;102040.25;5064729;28;20094;-69
2022/06/10 03:02:24;;;;;;;9.80;3.50;;;;;;;17.24;100.00;102039.44;5064865;28;20120;-69
2022/06/10 03:05:01;;;;;;;9.68;3.20;;;;;;;17.08;100.00;102036.03;5041771;28;20128;-69
2022/06/10 03:07:47;;;;;;;10.88;3.20;;;;;;;17.12;100.00;102036.31;5042286;28;20420;-70
2022/06/10 03:10:25;;;;;;;10.27;3.00;;;;;;;17.06;100.00;102041.06;5038461;28;20024;-69
2022/06/10 03:13:26;;;;;;;12.32;3.20;;;;;;;17.02;100.00;102048.34;5049413;28;20025;-70
2022/06/10 03:16:05;;;;;;;7.10;2.83;;;;;;;16.93;100.00;102052.88;5062408;28;20033;-71
2022/06/10 03:18:59;;;;;;;12.55;3.35;;;;;;;17.00;100.00;102046.97;5064547;28;20024;-69
2022/06/10 03:21:36;;;;;;;11.00;3.35;;;;;;;16.96;100.00;102046.75;5062853;28;20451;-70
2022/06/10 03:24:07;;;;;;;8.57;3.80;;;;;;;16.89;100.00;102051.84;5041983;28;20099;-69
2022/06/10 03:26:45;;;;;;;14.35;3.70;;;;;;;16.60;100.00;102038.00;5042536;28;20116;-71
2022/06/10 03:29:39;;;;;;;8.73;3.33;;;;;;;16.65;100.00;102043.50;5058326;28;20340;-70
2022/06/10 03:32:18;;;;;;;9.43;3.38;;;;;;;16.73;100.00;102046.44;5063808;28;20020;-71
2022/06/10 03:34:53;;;;;;;7.55;3.03;;;;;;;16.73;100.00;102049.19;5063327;28;20560;-71
2022/06/10 03:37:22;;;;;;;11.02;4.25;;;;;;;16.61;100.00;102050.72;5065147;28;20031;-70
2022/06/10 03:39:56;;;;;;;11.13;3.25;;;;;;;16.68;100.00;102053.97;5058210;28;20029;-71
2022/06/10 03:42:24;;;;;;;9.25;2.95;;;;;;;16.90;100.00;102054.31;5038180;28;20097;-72
2022/06/10 03:44:52;;;;;;;10.55;3.30;;;;;;;17.02;100.00;102056.66;5044056;28;20471;-71
2022/06/10 03:47:32;;;;;;;8.93;3.15;;;;;;;16.85;100.00;102057.13;5045688;28;20029;-71
2022/06/10 03:50:10;;;;;;;7.85;3.60;;;;;;;16.72;100.00;102061.41;5043444;28;20044;-70
2022/06/10 03:52:37;;;;;;;8.25;3.65;;;;;;;16.77;100.00;102060.50;5043958;28;20027;-70
2022/06/10 03:55:05;;;;;;;11.13;3.35;;;;;;;16.97;100.00;102053.09;5036383;28;20437;-71
2022/06/10 03:57:30;;;;;;;10.27;3.17;;;;;;;16.84;100.00;102058.22;5039827;28;20029;-71
2022/06/10 03:59:56;;;;;;;9.98;3.33;;;;;;;16.95;100.00;102056.16;5041218;28;20074;-71
2022/06/10 04:02:22;;;;;;;9.00;3.25;;;;;;;16.99;100.00;102054.47;5044726;28;20041;-70
2022/06/10 04:04:48;;;;;;;11.20;3.08;;;;;;;17.01;100.00;102046.69;5024158;28;20028;-70
2022/06/10 04:07:17;;;;;;;11.23;3.38;;;;;;;17.06;100.00;102056.88;5044379;28;20503;-70
2022/06/10 04:09:45;;;;;;;9.88;3.10;;;;;;;17.13;100.00;102049.00;5039627;28;20025;-70
2022/06/10 04:12:11;;;;;;;11.63;3.40;;;;;;;17.25;100.00;102054.97;5023262;28;20319;-70
2022/06/10 04:14:37;;;;;;;8.75;3.30;;;;;;;17.29;100.00;102055.19;5042157;28;20028;-70
2022/06/10 04:17:04;;;;;;;6.75;2.80;;;;;;;17.29;100.00;102051.59;5043669;28;20116;-69
2022/06/10 04:19:29;;;;;;;9.85;3.65;;;;;;;17.33;100.00;102045.16;5042390;28;20359;-70
2022/06/10 04:21:54;;;;;;;8.90;3.45;;;;;;;17.39;100.00;102051.44;5043758;28;20090;-70
2022/06/10 04:24:20;;;;;;;8.75;3.33;;;;;;;17.45;100.00;102050.25;5040718;28;20055;-70
2022/06/10 04:26:47;;;;;;;9.52;3.85;;;;;;;17.50;100.00;102054.91;5040005;28;20236;-70
2022/06/10 04:29:14;;;;;;;10.70;3.30;;;;;;;17.50;100.00;102054.91;5041536;28;20075;-70
2022/06/10 04:31:40;;;;;;;8.63;3.35;;;;;;;17.62;100.00;102060.81;5042129;28;20452;-69
2022/06/10 04:34:05;;;;;;;9.98;3.63;;;;;;;17.69;100.00;102058.47;5044547;28;20033;-70
2022/06/10 04:36:31;;;;;;;8.20;3.42;;;;;;;17.72;100.00;102052.31;5042095;28;20048;-69
2022/06/10 04:38:57;;;;;;;8.45;3.10;;;;;;;17.76;100.00;102058.94;5042335;28;20093;-69
2022/06/10 04:41:22;;;;;;;9.43;3.70;;;;;;;17.79;100.00;102055.56;5041316;28;20132;-68
2022/06/10 04:43:47;;;;;;;9.65;3.63;;;;;;;17.79;100.00;102054.72;5039557;28;20780;-69
2022/06/10 04:46:25;;;;;;;14.40;3.78;;;;;;;17.79;100.00;102061.09;5042322;28;20181;-69
2022/06/10 04:48:50;;;;;;;9.25;3.17;;;;;;;17.79;100.00;102057.47;5042511;28;20097;-68
2022/06/10 04:51:16;;;;;;;13.02;3.70;;;;;;;17.74;100.00;102057.56;5044500;28;20021;-69
2022/06/10 04:53:41;;;;;;;9.65;3.80;;;;;;;17.81;100.00;102052.47;5041755;28;20033;-68
2022/06/10 04:56:06;;;;;;;10.98;3.45;;;;;;;17.70;100.00;102054.56;5041519;28;20021;-69
2022/06/10 04:58:32;;;;;;;11.40;3.88;;;;;;;17.75;100.00;102060.03;5039037;28;20028;-68
2022/06/10 05:00:57;;;;;;;9.60;3.10;;;;;;;17.80;100.00;102056.38;5025947;28;20483;-69
2022/06/10 05:03:22;;;;;;;12.18;3.67;;;;;;;17.73;100.00;102053.16;5044236;28;20492;-69
2022/06/10 05:05:48;;;;;;;12.48;3.63;;;;;;;17.81;100.00;102047.75;5059409;28;20273;-69
2022/06/10 05:08:15;;;;;;;12.73;3.42;;;;;;;17.74;100.00;102052.88;5062139;28;20359;-69
2022/06/10 05:10:41;;;;;;;10.55;3.00;;;;;;;17.78;100.00;102055.84;5058363;28;20458;-69
2022/06/10 05:13:06;;;;;;;13.07;3.83;;;;;;;17.87;100.00;102051.28;5061410;28;20545;-69
2022/06/10 05:15:32;;;;;;;7.78;3.63;;;;;;;17.98;100.00;102054.72;5043517;28;20108;-69
2022/06/10 05:17:59;;;;;;;12.60;3.75;;;;;;;17.99;100.00;102053.59;5046027;28;20077;-69
2022/06/10 05:20:35;;;;;;;7.10;3.13;;;;;;;17.99;100.00;102051.66;5042319;28;20028;-69
2022/06/10 05:23:04;;;;;;;10.40;3.30;;;;;;;17.98;100.00;102051.94;5043694;28;20070;-69
2022/06/10 05:25:31;;;;;;;9.63;3.65;;;;;;;17.98;100.00;102058.31;5059160;28;20055;-69
2022/06/10 05:27:57;;;;;;;9.68;3.72;;;;;;;18.05;100.00;102048.78;5059873;28;20055;-69
2022/06/10 05:30:26;;;;;;;16.08;4.22;;;;;;;18.08;100.00;102060.09;5062298;28;20062;-69
2022/06/10 05:32:52;;;;;;;12.40;4.05;;;;;;;18.04;100.00;102047.13;5061550;28;20393;-69
2022/06/10 05:35:18;;;;;;;10.68;3.78;;;;;;;17.99;100.00;102054.41;5062001;28;20033;-69
2022/06/10 05:37:46;;;;;;;11.10;4.20;;;;;;;17.99;100.00;102051.66;5061337;28;20071;-70
2022/06/10 05:40:13;;;;;;;10.27;4.35;;;;;;;18.05;100.00;102044.03;5058902;28;20504;-68
2022/06/10 05:42:38;;;;;;;9.48;3.50;;;;;;;18.08;100.00;102059.28;5053993;28;20344;-69
2022/06/10 05:45:04;;;;;;;9.70;3.42;;;;;;;18.09;100.00;102060.94;5067977;28;20051;-69
2022/06/10 05:47:33;;;;;;;11.20;3.90;;;;;;;18.09;100.00;102061.75;5043559;28;20035;-69
2022/06/10 05:50:03;;;;;;;12.32;4.38;;;;;;;18.07;100.00;102060.41;5052891;28;20371;-69
2022/06/10 05:52:30;;;;;;;9.80;3.95;;;;;;;18.16;100.00;102056.63;5041145;28;20028;-68
2022/06/10 05:55:00;;;;;;;12.10;3.95;;;;;;;18.15;100.00;102059.69;5040496;28;20253;-68
2022/06/10 05:57:26;;;;;;;10.38;3.33;;;;;;;18.23;100.00;102055.41;5035986;28;20040;-69
2022/06/10 05:59:52;;;;;;;9.43;3.70;;;;;;;18.32;100.00;102059.16;5041248;28;20114;-68
2022/06/10 06:02:19;;;;;;;10.15;3.60;;;;;;;18.12;100.00;102063.09;5041696;28;20025;-69
2022/06/10 06:04:45;;;;;;;10.15;3.25;;;;;;;18.16;100.00;102061.34;5039757;28;20470;-69
2022/06/10 06:07:16;;;;;;;11.13;3.47;;;;;;;18.31;100.00;102057.47;5041060;28;20387;-68
2022/06/10 06:09:42;;;;;;;9.57;3.40;;;;;;;18.42;100.00;102058.94;5037055;28;20021;-69
2022/06/10 06:12:09;;;;;;;8.73;3.35;;;;;;;18.45;100.00;102068.63;5039349;28;20549;-69
2022/06/10 06:14:36;;;;;;;10.80;3.22;;;;;;;18.38;100.00;102057.91;5042847;28;20033;-69
2022/06/10 06:17:03;;;;;;;12.27;3.53;;;;;;;18.43;100.00;102073.66;5024196;28;20037;-69
2022/06/10 06:19:30;;;;;;;10.15;3.50;;;;;;;18.34;100.00;102074.34;5040435;28;20479;-69
2022/06/10 06:21:57;;;;;;;13.57;3.40;;;;;;;18.63;100.00;102069.69;5039575;28;20045;-69
2022/06/10 06:24:22;;;;;;;9.75;3.60;;;;;;;18.73;100.00;102077.81;5038928;28;20474;-70
2022/06/10 06:26:49;;;;;;;12.57;3.75;;;;;;;18.63;100.00;102080.78;5019780;28;20032;-67
2022/06/10 06:29:15;;;;;;;13.63;3.88;;;;;;;18.43;100.00;102082.81;5038782;28;20036;-68
2022/06/10 06:31:41;;;;;;;14.40;3.20;;;;;;;18.68;100.00;102084.28;5022169;28;20397;-68
2022/06/10 06:34:07;;;;;;;12.43;3.78;;;;;;;18.75;100.00;102089.44;5024299;28;20024;-70
2022/06/10 06:36:42;;;;;;;9.75;3.83;;;;;;;18.84;100.00;102086.78;5041213;28;20098;-68
2022/06/10 06:39:07;;;;;;;11.35;3.45;;;;;;;18.66;100.00;102086.56;5039680;28;20032;-70
2022/06/10 06:41:33;;;;;;;12.43;3.30;;;;;;;18.72;100.00;102088.09;5040903;28;20353;-68
2022/06/10 06:43:59;;;;;;;7.10;3.35;;;;;;;18.57;100.00;102093.94;5038412;28;20091;-68
2022/06/10 06:46:24;;;;;;;11.35;3.25;;;;;;;18.53;100.00;102093.72;5039892;28;20067;-69
2022/06/10 06:48:50;;;;;;;10.15;3.50;;;;;;;18.92;100.00;102091.63;5037795;28;20040;-69
2022/06/10 06:51:15;;;;;;;11.75;3.20;;;;;;;18.99;100.00;102088.44;5023617;28;20033;-69
2022/06/10 06:53:41;;;;;;;13.25;3.72;;;;;;;19.04;100.00;102099.47;5037732;28;20036;-68
2022/06/10 06:56:08;;;;;;;9.60;3.10;;;;;;;19.14;100.00;102092.88;5020973;28;20106;-69
2022/06/10 06:58:33;;;;;;;8.00;3.38;;;;;;;19.53;100.00;102092.28;5037783;28;20087;-68
2022/06/10 07:00:59;;;;;;;11.07;3.42;;;;;;;19.86;100.00;102080.97;5042610;28;20406;-68
2022/06/10 07:03:26;;;;;;;13.82;3.47;;;;;;;19.75;100.00;102088.72;5045585;28;20029;-69
2022/06/10 07:05:53;;;;;;;10.75;3.35;;;;;;;19.94;100.00;102087.72;5025006;28;20040;-70
2022/06/10 07:08:19;;;;;;;11.35;3.28;;;;;;;20.08;100.00;102091.28;5045573;28;20032;-68
2022/06/10 07:10:45;;;;;;;9.25;3.40;;;;;;;19.92;100.00;102093.63;5038946;28;20483;-69
2022/06/10 07:13:12;;;;;;;7.95;3.38;;;;;;;20.01;100.00;102091.72;5039491;28;20340;-68
2022/06/10 07:15:39;;;;;;;12.23;3.35;;;;;;;20.01;100.00;102096.47;5046475;28;20036;-69
2022/06/10 07:18:05;;;;;;;10.18;3.50;;;;;;;20.29;100.00;102099.13;5042735;28;20034;-69
2022/06/10 07:20:33;;;;;;;10.30;3.53;;;;;;;20.42;100.00;102098.22;5042968;28;20115;-70
2022/06/10 07:22:59;;;;;;;10.07;3.90;;;;;;;20.16;100.00;102092.50;5041334;28;20032;-69
2022/06/10 07:25:26;;;;;;;14.13;3.33;;;;;;;19.58;100.00;102094.13;5041664;28;20029;-69
2022/06/10 07:27:52;;;;;;;10.32;3.33;;;;;;;19.63;100.00;102099.56;5037012;28;20036;-69
2022/06/10 07:30:19;;;;;;;14.75;3.58;;;;;;;19.87;100.00;102102.09;5044351;28;20028;-69
2022/06/10 07:32:46;;;;;;;7.32;3.30;;;;;;;20.18;100.00;102096.63;5044189;28;20044;-68
2022/06/10 07:35:13;;;;;;;9.60;3.05;;;;;;;20.44;100.00;102101.50;5045578;28;20029;-68
2022/06/10 07:37:39;;;;;;;9.93;3.10;;;;;;;20.39;100.00;102098.84;5043805;28;20458;-69
2022/06/10 07:40:06;;;;;;;12.07;3.45;;;;;;;20.57;100.00;102100.59;5041393;28;20292;-70
2022/06/10 07:42:34;;;;;;;10.30;3.28;;;;;;;20.96;100.00;102097.34;5039042;28;20036;-68
2022/06/10 07:45:00;;;;;;;8.60;3.00;;;;;;;20.77;100.00;102089.25;5042260;28;20041;-69
2022/06/10 07:47:26;;;;;;;9.05;3.45;;;;;;;20.65;100.00;102096.22;5042423;28;20037;-68
2022/06/10 07:49:51;;;;;;;7.70;2.80;;;;;;;20.61;100.00;102102.72;5043472;28;20044;-67
2022/06/10 07:52:17;;;;;;;8.38;2.78;;;;;;;21.32;100.00;102096.28;5044636;28;20040;-69
2022/06/10 07:54:42;;;;;;;11.68;3.70;;;;;;;21.69;100.00;102096.84;5040503;28;20169;-69
2022/06/10 07:57:11;;;;;;;11.15;3.00;;;;;;;21.71;100.00;102095.38;5036363;28;20048;-68
2022/06/10 07:59:36;;;;;;;11.82;3.58;;;;;;;21.19;100.00;102100.88;5045054;28;20053;-69
2022/06/10 08:02:02;;;;;;;10.70;3.08;;;;;;;20.44;100.00;102107.06;5041850;28;20059;-68
2022/06/10 08:04:28;;;;;;;14.10;3.33;;;;;;;21.39;100.00;102094.66;5044764;28;20459;-69
2022/06/10 08:06:53;;;;;;;10.50;3.28;;;;;;;21.41;100.00;102091.53;5042526;28;20052;-69
2022/06/10 08:09:21;;;;;;;10.00;3.13;;;;;;;21.45;100.00;102092.53;5043322;28;20101;-68
2022/06/10 08:11:51;;;;;;;10.25;3.00;;;;;;;20.83;100.00;102101.91;5042101;28;20112;-69
2022/06/10 08:14:17;;;;;;;10.75;3.40;;;;;;;20.66;100.00;102097.03;5043581;28;20024;-69
2022/06/10 08:16:43;;;;;;;10.13;3.00;;;;;;;20.79;100.00;102101.72;5044745;28;20391;-69
2022/06/10 08:19:09;;;;;;;10.05;3.20;;;;;;;20.46;100.00;102113.13;5044318;28;20120;-68
2022/06/10 08:24:20;;;;;;;9.52;3.60;;;;;;;20.07;100.00;102100.78;5043572;28;20589;-67
2022/06/10 08:26:45;;;;;;;10.80;3.65;;;;;;;20.77;100.00;102105.97;5042297;28;20526;-68
2022/06/10 08:29:11;;;;;;;8.57;3.15;;;;;;;21.52;100.00;102108.84;5042463;28;20240;-68
2022/06/10 08:31:36;;;;;;;8.90;3.55;;;;;;;22.17;100.00;102102.25;5043191;28;20110;-68
2022/06/10 08:34:03;;;;;;;7.72;4.35;;;;;;;21.72;100.00;102102.59;5043474;28;20063;-70
2022/06/10 08:36:30;;;;;;;11.23;3.88;;;;;;;21.60;100.00;102100.47;5044865;28;20064;-69
2022/06/10 08:38:55;;;;;;;9.57;3.97;;;;;;;21.72;100.00;102099.00;5041907;28;20174;-70
2022/06/10 08:41:27;;;;;;;12.07;3.67;;;;;;;21.73;100.00;102092.28;5043966;28;20115;-69
2022/06/10 08:43:55;;;;;;;5.50;3.03;;;;;;;21.52;100.00;102095.69;5038940;28;20028;-68
2022/06/10 08:46:58;;;;;;;8.45;3.55;;;;;;;21.75;100.00;102089.97;5045513;28;20025;-68
2022/06/10 08:49:36;;;;;;;;;;;;;;;21.81;100.00;102102.63;5032234;28;20091;-68
2022/06/10 08:52:04;;;;;;;8.50;2.90;;;;;;;21.43;100.00;102100.41;5040868;28;20545;-68
2022/06/10 08:54:47;;;;;;;8.57;3.08;;;;;;;21.88;100.00;102102.94;5041309;28;20284;-68
2022/06/10 08:57:35;;;;;;;;;;;;;;;21.25;100.00;102111.53;5051775;28;20586;-69
2022/06/10 09:00:03;;;;;;;6.35;2.90;;;;;;;21.95;100.00;102100.44;5062192;28;19917;-68
2022/06/10 09:03:10;;;;;;;7.90;3.08;;;;;;;21.92;100.00;102111.47;5064195;28;20470;-68
2022/06/10 09:05:52;;;;;;;9.43;2.65;;;;;;;22.71;100.00;102110.19;5057958;28;20501;-68
2022/06/10 09:08:23;;;;;;;6.50;2.27;;;;;;;22.13;100.00;102106.03;5039720;28;20039;-68
2022/06/10 09:11:03;;;;;;;5.75;2.40;;;;;;;22.89;100.00;102115.69;5041646;28;20360;-68
2022/06/10 09:13:56;;;;;;;8.82;2.33;;;;;;;22.59;100.00;102112.84;5042078;28;20016;-68
2022/06/10 09:16:35;;;;;;;6.88;2.15;;;;;;;22.82;100.00;102112.59;5040174;28;20044;-69
2022/06/10 09:19:09;;;;;;;8.52;2.38;;;;;;;22.96;100.00;102116.00;5040277;28;20128;-68
2022/06/10 09:21:43;;;;;;;5.55;2.00;;;;;;;22.71;100.00;102115.78;5045477;28;20033;-68
2022/06/10 09:24:42;;;;;;;5.07;1.92;;;;;;;22.94;100.00;102107.94;5058127;28;20496;-68
2022/06/10 09:27:35;;;;;;;5.93;1.73;;;;;;;22.99;100.00;102109.75;5056559;28;20048;-68
2022/06/10 09:30:03;;;;;;;5.63;1.63;;;;;;;23.26;100.00;102104.84;5039485;28;20510;-69
2022/06/10 09:32:47;;;;;;;6.63;1.98;;;;;;;23.32;100.00;102100.69;5063041;28;20020;-69
2022/06/10 09:35:43;;;;;;;5.88;2.08;;;;;;;24.09;100.00;102100.44;5060154;28;20025;-69
2022/06/10 09:38:14;;;;;;;6.57;2.38;;;;;;;24.43;100.00;102106.00;5051091;28;20086;-68
2022/06/10 09:40:57;;;;;;;7.22;2.05;;;;;;;24.56;100.00;102091.72;5041643;28;20029;-70
2022/06/10 09:43:42;;;;;;;6.35;2.33;;;;;;;23.01;100.00;102096.25;5038212;28;20116;-68
2022/06/10 09:46:35;;;;;;;4.68;2.10;;;;;;;23.26;100.00;102097.25;5041313;28;20035;-68
2022/06/10 09:49:12;;;;;;;5.57;2.40;;;;;;;23.15;100.00;102095.19;5040290;28;20036;-67
2022/06/10 09:51:43;;;;;;;6.07;1.90;;;;;;;23.60;100.00;102105.78;5043450;28;20028;-68
2022/06/10 09:54:49;;;;;;;5.63;1.90;;;;;;;23.43;100.00;102099.16;5044284;28;20021;-67
2022/06/10 09:57:32;;;;;;;6.78;2.17;;;;;;;23.88;100.00;102102.44;5021776;28;20041;-67
2022/06/10 10:00:10;;;;;;;6.63;2.30;;;;;;;24.55;100.00;102111.66;5047333;28;20390;-69
2022/06/10 10:03:05;;;;;;;7.30;2.53;;;;;;;23.69;100.00;102112.09;5061943;28;20127;-69
2022/06/10 10:05:45;;;;;;;8.70;2.65;;;;;;;23.07;100.00;102113.66;5053853;28;20518;-69
2022/06/10 10:08:36;;;;;;;10.15;3.08;;;;;;;22.45;100.00;102129.00;5059616;28;20047;-68
2022/06/10 10:11:05;;;;;;;12.27;2.97;;;;;;;23.16;100.00;102131.22;5062118;28;20117;-69
2022/06/10 10:13:43;;;;;;;8.68;2.72;;;;;;;23.44;100.00;102125.94;5039910;28;20332;-69
2022/06/10 10:16:33;;;;;;;7.88;2.97;;;;;;;23.51;100.00;102124.59;5038745;28;20021;-69
2022/06/10 10:19:36;;;;;;;7.13;2.67;;;;;;;22.65;100.00;102125.50;5043053;28;20031;-68
2022/06/10 10:22:23;;;;;;;11.35;2.78;;;;;;;23.70;100.00;102127.75;5060875;28;20060;-68
2022/06/10 10:24:49;;;;;;;10.45;2.78;;;;;;;24.30;100.00;102122.81;5060729;28;20029;-68
2022/06/10 10:27:31;;;;;;;8.63;2.67;;;;;;;24.20;100.00;102126.03;5057926;28;20263;-68
2022/06/10 10:30:06;;;;;;;9.57;2.90;;;;;;;24.52;100.00;102121.56;5041382;28;20028;-68
2022/06/10 10:32:36;;;;;;;7.13;2.72;;;;;;;24.36;100.00;102120.59;5042557;28;20024;-68
2022/06/10 10:35:18;;;;;;;10.90;3.35;;;;;;;24.21;100.00;102119.25;5057408;28;20028;-67
2022/06/10 10:37:52;;;;;;;7.00;2.65;;;;;;;24.36;100.00;102118.59;5066113;28;20024;-67
2022/06/10 10:40:20;;;;;;;8.18;3.08;;;;;;;25.10;100.00;102127.16;5061121;28;20020;-68
2022/06/10 10:42:47;;;;;;;5.70;2.80;;;;;;;25.19;100.00;102134.63;5060379;28;20823;-69
2022/06/10 10:45:21;;;;;;;8.10;2.90;;;;;;;25.56;99.67;102123.38;5042510;28;20115;-69
2022/06/10 10:47:59;;;;;;;8.88;2.95;;;;;;;25.35;100.00;102120.72;5052302;28;20097;-69
2022/06/10 10:50:35;;;;;;;9.70;3.03;;;;;;;24.68;100.00;102120.94;5060428;28;20037;-69
2022/06/10 10:53:19;;;;;;;10.52;2.67;;;;;;;23.24;100.00;102133.16;5045798;28;20452;-69
2022/06/10 10:55:50;;;;;;;10.23;2.58;;;;;;;23.73;100.00;102137.47;5043827;28;20110;-69
2022/06/10 10:58:28;;;;;;;10.20;2.78;;;;;;;24.54;100.00;102129.63;5039079;28;20154;-68
2022/06/10 11:00:57;;;;;;;10.20;3.60;;;;;;;23.29;100.00;102130.16;5045813;28;20099;-68
2022/06/10 11:03:33;;;;;;;15.13;3.10;;;;;;;23.67;100.00;102134.03;5043899;28;20029;-69
2022/06/10 11:06:03;;;;;;;11.55;3.20;;;;;;;23.36;100.00;102131.63;5044041;28;20020;-69
2022/06/10 11:08:37;;;;;;;9.25;2.30;;;;;;;23.53;100.00;102125.91;5043498;28;20272;-68
2022/06/10 11:11:17;;;;;;;12.07;2.83;;;;;;;23.91;100.00;102136.19;5044887;28;20434;-68
2022/06/10 11:13:46;;;;;;;9.85;2.80;;;;;;;23.05;100.00;102141.94;5040791;28;20096;-70
2022/06/10 11:16:35;;;;;;;10.57;3.15;;;;;;;23.80;100.00;102134.94;5043848;28;20124;-68
2022/06/10 11:19:05;;;;;;;8.95;3.03;;;;;;;23.25;100.00;102134.81;5044878;28;20444;-70
2022/06/10 11:21:49;;;;;;;10.68;2.83;;;;;;;24.35;100.00;102141.34;5043977;28;20057;-69
2022/06/10 11:24:18;;;;;;;9.77;3.13;;;;;;;24.85;100.00;102137.53;5055714;28;20536;-69
2022/06/10 11:26:52;;;;;;;7.47;2.45;;;;;;;24.41;100.00;102137.19;5067581;28;20028;-68
2022/06/10 11:29:19;;;;;;;9.27;2.67;;;;;;;24.61;100.00;102138.31;5045438;28;20025;-68
2022/06/10 11:31:56;;;;;;;8.02;2.63;;;;;;;24.64;100.00;102119.97;5067512;28;20490;-69
2022/06/10 11:34:36;;;;;;;6.72;2.50;;;;;;;24.71;100.00;102118.25;5065359;28;20067;-70
2022/06/10 11:37:25;;;;;;;9.02;2.55;;;;;;;24.71;100.00;102120.22;5067185;28;20031;-68
2022/06/10 11:40:02;;;;;;;7.43;2.50;;;;;;;24.29;100.00;102131.56;5064268;28;20069;-69
2022/06/10 11:42:34;;;;;;;6.45;2.20;;;;;;;25.29;100.00;102126.56;5062710;28;20534;-68
2022/06/10 11:45:11;;;;;;;10.00;2.43;;;;;;;25.71;100.00;102119.00;5063848;28;20028;-69